sensor_id;sensor_type;location;lat;lon;timestamp;pressure;altitude;pressure_sealevel;temperature;humidity
63097;BME280;49185;42.320;23.198;2023-03-23T00:00:39;94865.00;;;2.17;96.99
63097;BME280;49185;42.320;23.198;2023-03-23T00:03:04;94865.03;;;2.24;96.29
63097;BME280;49185;42.320;23.198;2023-03-23T00:05:30;94861.72;;;2.08;97.50
63097;BME280;49185;42.320;23.198;2023-03-23T00:07:55;94857.47;;;2.07;97.46
63097;BME280;49185;42.320;23.198;2023-03-23T00:10:21;94856.50;;;2.15;97.50
63097;BME280;49185;42.320;23.198;2023-03-23T00:12:46;94852.19;;;2.36;96.68
63097;BME280;49185;42.320;23.198;2023-03-23T00:15:11;94851.41;;;2.07;96.50
63097;BME280;49185;42.320;23.198;2023-03-23T00:17:37;94850.06;;;2.18;97.56
63097;BME280;49185;42.320;23.198;2023-03-23T00:20:03;94845.16;;;2.08;97.07
63097;BME280;49185;42.320;23.198;2023-03-23T00:22:28;94850.84;;;2.12;96.94
63097;BME280;49185;42.320;23.198;2023-03-23T00:24:54;94846.00;;;2.15;96.83
63097;BME280;49185;42.320;23.198;2023-03-23T00:27:21;94846.66;;;1.89;96.97
63097;BME280;49185;42.320;23.198;2023-03-23T00:29:50;94847.19;;;1.78;97.73
63097;BME280;49185;42.320;23.198;2023-03-23T00:32:16;94842.38;;;1.81;97.90
63097;BME280;49185;42.320;23.198;2023-03-23T00:34:41;94848.41;;;1.82;98.07
63097;BME280;49185;42.320;23.198;2023-03-23T00:37:07;94845.00;;;1.81;98.07
63097;BME280;49185;42.320;23.198;2023-03-23T00:39:33;94853.19;;;1.71;98.03
63097;BME280;49185;42.320;23.198;2023-03-23T00:41:59;94855.66;;;1.80;97.38
63097;BME280;49185;42.320;23.198;2023-03-23T00:44:24;94850.38;;;1.73;96.92
63097;BME280;49185;42.320;23.198;2023-03-23T00:46:50;94849.88;;;1.63;97.43
63097;BME280;49185;42.320;23.198;2023-03-23T00:49:19;94848.28;;;1.62;97.28
63097;BME280;49185;42.320;23.198;2023-03-23T00:51:45;94847.50;;;1.68;97.17
63097;BME280;49185;42.320;23.198;2023-03-23T00:54:11;94841.41;;;1.61;96.92
63097;BME280;49185;42.320;23.198;2023-03-23T00:56:37;94839.81;;;1.66;97.44
63097;BME280;49185;42.320;23.198;2023-03-23T00:59:03;94848.09;;;1.63;97.13
63097;BME280;49185;42.320;23.198;2023-03-23T01:01:29;94844.47;;;2.27;93.91
63097;BME280;49185;42.320;23.198;2023-03-23T01:03:54;94842.31;;;1.75;94.10
63097;BME280;49185;42.320;23.198;2023-03-23T01:06:20;94845.53;;;1.48;95.50
63097;BME280;49185;42.320;23.198;2023-03-23T01:08:45;94847.72;;;1.45;96.24
63097;BME280;49185;42.320;23.198;2023-03-23T01:11:15;94836.13;;;1.54;94.82
63097;BME280;49185;42.320;23.198;2023-03-23T01:13:42;94835.56;;;1.37;95.82
63097;BME280;49185;42.320;23.198;2023-03-23T01:16:09;94837.94;;;1.32;96.54
63097;BME280;49185;42.320;23.198;2023-03-23T01:18:34;94831.31;;;1.58;96.15
63097;BME280;49185;42.320;23.198;2023-03-23T01:21:11;94834.94;;;1.85;94.49
63097;BME280;49185;42.320;23.198;2023-03-23T01:23:38;94832.44;;;1.77;94.50
63097;BME280;49185;42.320;23.198;2023-03-23T01:26:06;94837.28;;;1.51;94.64
63097;BME280;49185;42.320;23.198;2023-03-23T01:28:31;94834.94;;;1.35;95.69
63097;BME280;49185;42.320;23.198;2023-03-23T01:31:02;94831.50;;;1.35;96.26
63097;BME280;49185;42.320;23.198;2023-03-23T01:33:29;94835.88;;;1.27;96.71
63097;BME280;49185;42.320;23.198;2023-03-23T01:35:54;94825.97;;;1.23;97.04
63097;BME280;49185;42.320;23.198;2023-03-23T01:38:20;94826.03;;;1.29;96.87
63097;BME280;49185;42.320;23.198;2023-03-23T01:40:45;94821.94;;;1.48;97.09
63097;BME280;49185;42.320;23.198;2023-03-23T01:43:13;94830.13;;;1.39;96.20
63097;BME280;49185;42.320;23.198;2023-03-23T01:45:39;94833.06;;;1.29;96.46
63097;BME280;49185;42.320;23.198;2023-03-23T01:48:13;94832.56;;;1.19;97.42
63097;BME280;49185;42.320;23.198;2023-03-23T01:50:50;94833.31;;;1.12;98.31
63097;BME280;49185;42.320;23.198;2023-03-23T01:53:16;94835.16;;;1.12;98.32
63097;BME280;49185;42.320;23.198;2023-03-23T01:55:43;94838.94;;;1.09;98.27
63097;BME280;49185;42.320;23.198;2023-03-23T01:58:11;94830.44;;;1.07;98.72
63097;BME280;49185;42.320;23.198;2023-03-23T02:00:38;94828.03;;;1.56;98.18
63097;BME280;49185;42.320;23.198;2023-03-23T02:03:04;94830.31;;;1.37;96.50
63097;BME280;49185;42.320;23.198;2023-03-23T02:05:32;94833.31;;;1.12;97.56
63097;BME280;49185;42.320;23.198;2023-03-23T02:08:00;94834.56;;;0.95;98.26
63097;BME280;49185;42.320;23.198;2023-03-23T02:10:27;94832.78;;;1.67;97.25
63097;BME280;49185;42.320;23.198;2023-03-23T02:12:52;94833.94;;;1.58;95.20
63097;BME280;49185;42.320;23.198;2023-03-23T02:15:18;94834.38;;;1.96;94.16
63097;BME280;49185;42.320;23.198;2023-03-23T02:17:53;94834.38;;;1.40;95.48
63097;BME280;49185;42.320;23.198;2023-03-23T02:36:30;94835.56;;;0.94;96.59
63097;BME280;49185;42.320;23.198;2023-03-23T02:41:49;94834.91;;;0.70;98.40
63097;BME280;49185;42.320;23.198;2023-03-23T02:44:17;94841.00;;;0.92;98.03
63097;BME280;49185;42.320;23.198;2023-03-23T02:46:43;94839.81;;;1.17;96.12
63097;BME280;49185;42.320;23.198;2023-03-23T02:49:12;94838.44;;;1.42;96.70
63097;BME280;49185;42.320;23.198;2023-03-23T02:51:39;94845.63;;;0.75;97.04
63097;BME280;49185;42.320;23.198;2023-03-23T02:54:07;94845.06;;;0.59;98.81
63097;BME280;49185;42.320;23.198;2023-03-23T02:56:34;94844.03;;;0.74;99.11
63097;BME280;49185;42.320;23.198;2023-03-23T02:59:00;94845.97;;;0.51;99.10
63097;BME280;49185;42.320;23.198;2023-03-23T03:03:52;94851.19;;;0.51;98.81
63097;BME280;49185;42.320;23.198;2023-03-23T03:09:38;94862.13;;;0.40;98.96
63097;BME280;49185;42.320;23.198;2023-03-23T03:12:34;94865.94;;;0.22;99.65
63097;BME280;49185;42.320;23.198;2023-03-23T03:18:18;94869.72;;;0.20;100.00
63097;BME280;49185;42.320;23.198;2023-03-23T03:21:03;94874.13;;;0.19;100.00
63097;BME280;49185;42.320;23.198;2023-03-23T03:23:31;94869.72;;;0.20;100.00
63097;BME280;49185;42.320;23.198;2023-03-23T03:25:58;94873.84;;;0.14;100.00
63097;BME280;49185;42.320;23.198;2023-03-23T03:28:26;94879.56;;;0.32;100.00
63097;BME280;49185;42.320;23.198;2023-03-23T03:30:55;94871.72;;;0.32;100.00
63097;BME280;49185;42.320;23.198;2023-03-23T03:33:23;94872.13;;;0.51;100.00
63097;BME280;49185;42.320;23.198;2023-03-23T03:35:49;94879.53;;;0.99;100.00
63097;BME280;49185;42.320;23.198;2023-03-23T03:38:15;94872.28;;;1.01;97.00
63097;BME280;49185;42.320;23.198;2023-03-23T03:40:40;94872.88;;;0.81;97.84
63097;BME280;49185;42.320;23.198;2023-03-23T03:43:06;94882.25;;;0.54;97.69
63097;BME280;49185;42.320;23.198;2023-03-23T03:45:31;94882.34;;;0.61;99.43
63097;BME280;49185;42.320;23.198;2023-03-23T03:47:57;94880.53;;;0.31;98.88
63097;BME280;49185;42.320;23.198;2023-03-23T03:50:22;94886.69;;;0.24;100.00
63097;BME280;49185;42.320;23.198;2023-03-23T03:52:48;94885.44;;;0.20;100.00
63097;BME280;49185;42.320;23.198;2023-03-23T03:55:13;94880.44;;;0.25;100.00
63097;BME280;49185;42.320;23.198;2023-03-23T03:57:39;94876.22;;;0.90;100.00
63097;BME280;49185;42.320;23.198;2023-03-23T04:00:07;94878.97;;;0.82;98.62
63097;BME280;49185;42.320;23.198;2023-03-23T04:02:33;94871.03;;;0.75;98.78
63097;BME280;49185;42.320;23.198;2023-03-23T04:04:58;94871.28;;;0.65;99.40
63097;BME280;49185;42.320;23.198;2023-03-23T04:07:24;94879.19;;;0.50;99.48
63097;BME280;49185;42.320;23.198;2023-03-23T04:09:49;94879.19;;;0.35;100.00
63097;BME280;49185;42.320;23.198;2023-03-23T04:12:15;94885.25;;;0.36;100.00
63097;BME280;49185;42.320;23.198;2023-03-23T04:14:41;94871.41;;;0.42;100.00
63097;BME280;49185;42.320;23.198;2023-03-23T04:17:06;94870.53;;;0.50;100.00
63097;BME280;49185;42.320;23.198;2023-03-23T04:19:32;94872.00;;;1.10;99.34
63097;BME280;49185;42.320;23.198;2023-03-23T04:21:58;94875.00;;;0.71;99.27
63097;BME280;49185;42.320;23.198;2023-03-23T04:24:24;94880.72;;;0.96;99.48
63097;BME280;49185;42.320;23.198;2023-03-23T04:26:50;94885.00;;;0.82;99.64
63097;BME280;49185;42.320;23.198;2023-03-23T04:29:15;94875.66;;;1.81;97.02
63097;BME280;49185;42.320;23.198;2023-03-23T04:31:41;94879.88;;;1.82;93.44
63097;BME280;49185;42.320;23.198;2023-03-23T04:34:06;94884.75;;;1.35;95.68
63097;BME280;49185;42.320;23.198;2023-03-23T04:36:31;94889.91;;;1.07;97.41
63097;BME280;49185;42.320;23.198;2023-03-23T04:38:57;94881.00;;;1.44;98.68
63097;BME280;49185;42.320;23.198;2023-03-23T04:41:22;94887.66;;;1.04;97.28
63097;BME280;49185;42.320;23.198;2023-03-23T04:43:48;94885.22;;;0.66;99.36
63097;BME280;49185;42.320;23.198;2023-03-23T04:46:14;94885.50;;;0.56;100.00
63097;BME280;49185;42.320;23.198;2023-03-23T04:48:39;94888.41;;;0.46;100.00
63097;BME280;49185;42.320;23.198;2023-03-23T04:51:05;94895.16;;;0.41;100.00
63097;BME280;49185;42.320;23.198;2023-03-23T04:53:31;94890.81;;;0.33;100.00
63097;BME280;49185;42.320;23.198;2023-03-23T04:55:57;94894.06;;;0.35;100.00
63097;BME280;49185;42.320;23.198;2023-03-23T04:58:22;94892.06;;;0.37;100.00
63097;BME280;49185;42.320;23.198;2023-03-23T05:00:48;94895.53;;;0.37;100.00
63097;BME280;49185;42.320;23.198;2023-03-23T05:03:13;94905.53;;;0.49;100.00
63097;BME280;49185;42.320;23.198;2023-03-23T05:05:39;94906.72;;;0.46;100.00
63097;BME280;49185;42.320;23.198;2023-03-23T05:08:04;94913.56;;;0.62;100.00
63097;BME280;49185;42.320;23.198;2023-03-23T05:10:30;94906.03;;;0.89;100.00
63097;BME280;49185;42.320;23.198;2023-03-23T05:12:55;94901.41;;;0.91;100.00
63097;BME280;49185;42.320;23.198;2023-03-23T05:15:21;94903.44;;;0.74;100.00
63097;BME280;49185;42.320;23.198;2023-03-23T05:17:46;94908.13;;;1.15;100.00
63097;BME280;49185;42.320;23.198;2023-03-23T05:20:14;94913.25;;;1.66;100.00
63097;BME280;49185;42.320;23.198;2023-03-23T05:22:41;94918.53;;;1.95;100.00
63097;BME280;49185;42.320;23.198;2023-03-23T05:25:08;94913.03;;;2.18;97.49
63097;BME280;49185;42.320;23.198;2023-03-23T05:27:34;94918.16;;;1.98;95.79
63097;BME280;49185;42.320;23.198;2023-03-23T05:30:00;94919.16;;;1.75;96.20
63097;BME280;49185;42.320;23.198;2023-03-23T05:32:26;94917.31;;;1.69;97.02
63097;BME280;49185;42.320;23.198;2023-03-23T05:34:51;94920.28;;;2.16;97.23
63097;BME280;49185;42.320;23.198;2023-03-23T05:37:17;94922.75;;;2.87;92.35
63097;BME280;49185;42.320;23.198;2023-03-23T05:39:42;94918.59;;;3.13;90.98
63097;BME280;49185;42.320;23.198;2023-03-23T05:42:08;94932.09;;;3.10;89.80
63097;BME280;49185;42.320;23.198;2023-03-23T05:44:33;94938.41;;;2.39;93.46
63097;BME280;49185;42.320;23.198;2023-03-23T05:46:59;94923.06;;;2.71;91.00
63097;BME280;49185;42.320;23.198;2023-03-23T05:49:24;94926.03;;;2.96;89.68
63097;BME280;49185;42.320;23.198;2023-03-23T05:51:50;94936.28;;;2.21;93.30
63097;BME280;49185;42.320;23.198;2023-03-23T05:54:16;94932.66;;;1.94;95.50
63097;BME280;49185;42.320;23.198;2023-03-23T05:56:42;94932.84;;;2.49;95.60
63097;BME280;49185;42.320;23.198;2023-03-23T05:59:07;94932.88;;;3.72;92.40
63097;BME280;49185;42.320;23.198;2023-03-23T06:01:33;94933.94;;;3.09;91.09
63097;BME280;49185;42.320;23.198;2023-03-23T06:03:59;94929.50;;;3.16;92.06
63097;BME280;49185;42.320;23.198;2023-03-23T06:06:25;94927.59;;;3.58;90.46
63097;BME280;49185;42.320;23.198;2023-03-23T06:08:51;94924.59;;;3.88;89.66
63097;BME280;49185;42.320;23.198;2023-03-23T06:11:17;94926.41;;;4.41;85.05
63097;BME280;49185;42.320;23.198;2023-03-23T06:13:42;94930.47;;;3.90;88.63
63097;BME280;49185;42.320;23.198;2023-03-23T06:16:08;94930.22;;;4.59;85.95
63097;BME280;49185;42.320;23.198;2023-03-23T06:18:34;94924.72;;;4.73;85.42
63097;BME280;49185;42.320;23.198;2023-03-23T06:21:00;94921.34;;;4.26;86.01
63097;BME280;49185;42.320;23.198;2023-03-23T06:23:26;94921.47;;;4.78;85.06
63097;BME280;49185;42.320;23.198;2023-03-23T06:25:58;94920.13;;;5.14;83.73
63097;BME280;49185;42.320;23.198;2023-03-23T06:28:24;94914.53;;;5.36;82.57
63097;BME280;49185;42.320;23.198;2023-03-23T06:30:50;94915.50;;;6.55;79.00
63097;BME280;49185;42.320;23.198;2023-03-23T06:33:15;94912.44;;;7.14;76.18
63097;BME280;49185;42.320;23.198;2023-03-23T06:35:41;94910.31;;;7.65;74.33
63097;BME280;49185;42.320;23.198;2023-03-23T06:38:06;94905.03;;;7.65;74.04
63097;BME280;49185;42.320;23.198;2023-03-23T06:40:32;94895.16;;;8.73;69.08
63097;BME280;49185;42.320;23.198;2023-03-23T06:42:57;94896.13;;;9.07;67.57
63097;BME280;49185;42.320;23.198;2023-03-23T06:45:23;94890.38;;;9.10;68.39
63097;BME280;49185;42.320;23.198;2023-03-23T06:47:48;94894.56;;;7.70;72.86
63097;BME280;49185;42.320;23.198;2023-03-23T06:50:15;94887.31;;;8.31;72.84
63097;BME280;49185;42.320;23.198;2023-03-23T06:52:40;94892.09;;;7.87;73.25
63097;BME280;49185;42.320;23.198;2023-03-23T06:55:06;94893.13;;;9.44;69.77
63097;BME280;49185;42.320;23.198;2023-03-23T06:57:32;94892.19;;;9.50;69.14
63097;BME280;49185;42.320;23.198;2023-03-23T06:59:57;94894.72;;;10.93;63.08
63097;BME280;49185;42.320;23.198;2023-03-23T07:02:23;94892.94;;;9.63;68.96
63097;BME280;49185;42.320;23.198;2023-03-23T07:04:49;94902.53;;;11.21;61.49
63097;BME280;49185;42.320;23.198;2023-03-23T07:07:14;94896.63;;;10.75;62.90
63097;BME280;49185;42.320;23.198;2023-03-23T07:09:40;94902.47;;;10.38;64.83
63097;BME280;49185;42.320;23.198;2023-03-23T07:12:05;94896.47;;;11.26;63.29
63097;BME280;49185;42.320;23.198;2023-03-23T07:14:31;94886.69;;;10.88;62.63
63097;BME280;49185;42.320;23.198;2023-03-23T07:16:56;94909.22;;;10.29;65.81
63097;BME280;49185;42.320;23.198;2023-03-23T07:19:22;94905.53;;;10.47;64.07
63097;BME280;49185;42.320;23.198;2023-03-23T07:21:47;94914.75;;;11.17;64.56
63097;BME280;49185;42.320;23.198;2023-03-23T07:24:12;94909.03;;;11.31;61.63
63097;BME280;49185;42.320;23.198;2023-03-23T07:26:38;94908.00;;;11.32;62.91
63097;BME280;49185;42.320;23.198;2023-03-23T07:29:03;94919.38;;;10.49;65.49
63097;BME280;49185;42.320;23.198;2023-03-23T07:31:29;94904.97;;;12.64;60.36
63097;BME280;49185;42.320;23.198;2023-03-23T07:33:54;94912.47;;;13.15;57.12
63097;BME280;49185;42.320;23.198;2023-03-23T07:36:19;94909.72;;;11.92;60.90
63097;BME280;49185;42.320;23.198;2023-03-23T07:38:45;94904.38;;;13.47;57.04
63097;BME280;49185;42.320;23.198;2023-03-23T07:41:10;94910.38;;;14.01;56.21
63097;BME280;49185;42.320;23.198;2023-03-23T07:43:36;94906.06;;;15.03;53.60
63097;BME280;49185;42.320;23.198;2023-03-23T07:46:01;94907.16;;;15.67;52.54
63097;BME280;49185;42.320;23.198;2023-03-23T07:48:27;94914.41;;;14.50;56.54
63097;BME280;49185;42.320;23.198;2023-03-23T07:50:52;94918.16;;;14.95;54.74
63097;BME280;49185;42.320;23.198;2023-03-23T07:53:18;94911.00;;;16.05;52.60
63097;BME280;49185;42.320;23.198;2023-03-23T07:55:43;94917.72;;;16.42;50.74
63097;BME280;49185;42.320;23.198;2023-03-23T07:58:09;94912.72;;;16.30;52.09
63097;BME280;49185;42.320;23.198;2023-03-23T08:00:34;94909.13;;;16.06;51.79
63097;BME280;49185;42.320;23.198;2023-03-23T08:03:00;94900.97;;;15.82;51.94
63097;BME280;49185;42.320;23.198;2023-03-23T08:05:26;94905.41;;;16.02;51.95
63097;BME280;49185;42.320;23.198;2023-03-23T08:07:53;94918.16;;;14.23;54.86
63097;BME280;49185;42.320;23.198;2023-03-23T08:10:19;94923.81;;;15.69;54.06
63097;BME280;49185;42.320;23.198;2023-03-23T08:12:45;94925.66;;;14.26;57.22
63097;BME280;49185;42.320;23.198;2023-03-23T08:15:11;94925.31;;;15.20;55.27
63097;BME280;49185;42.320;23.198;2023-03-23T08:17:37;94925.47;;;16.49;50.91
63097;BME280;49185;42.320;23.198;2023-03-23T08:20:04;94922.56;;;16.75;50.26
63097;BME280;49185;42.320;23.198;2023-03-23T08:22:29;94930.75;;;14.53;54.90
63097;BME280;49185;42.320;23.198;2023-03-23T08:24:55;94927.84;;;15.61;53.39
63097;BME280;49185;42.320;23.198;2023-03-23T08:27:20;94926.44;;;16.29;49.62
63097;BME280;49185;42.320;23.198;2023-03-23T08:29:46;94926.41;;;15.89;48.46
63097;BME280;49185;42.320;23.198;2023-03-23T08:32:12;94915.34;;;17.04;48.45
63097;BME280;49185;42.320;23.198;2023-03-23T08:34:38;94916.31;;;18.24;44.39
63097;BME280;49185;42.320;23.198;2023-03-23T08:37:04;94919.41;;;17.26;45.11
63097;BME280;49185;42.320;23.198;2023-03-23T08:39:29;94919.94;;;16.35;41.92
63097;BME280;49185;42.320;23.198;2023-03-23T08:41:54;94914.78;;;17.07;40.26
63097;BME280;49185;42.320;23.198;2023-03-23T08:44:20;94905.38;;;17.05;38.85
63097;BME280;49185;42.320;23.198;2023-03-23T08:46:45;94906.25;;;16.66;39.48
63097;BME280;49185;42.320;23.198;2023-03-23T08:49:11;94895.31;;;17.83;38.21
63097;BME280;49185;42.320;23.198;2023-03-23T08:51:36;94905.44;;;17.24;37.31
63097;BME280;49185;42.320;23.198;2023-03-23T08:54:02;94910.09;;;17.86;37.42
63097;BME280;49185;42.320;23.198;2023-03-23T08:56:28;94890.50;;;17.37;37.35
63097;BME280;49185;42.320;23.198;2023-03-23T08:58:53;94893.59;;;16.72;39.01
63097;BME280;49185;42.320;23.198;2023-03-23T09:01:19;94891.38;;;17.08;38.91
63097;BME280;49185;42.320;23.198;2023-03-23T09:03:44;94892.47;;;17.74;37.94
63097;BME280;49185;42.320;23.198;2023-03-23T09:06:10;94897.53;;;17.57;36.69
63097;BME280;49185;42.320;23.198;2023-03-23T09:08:36;94886.56;;;17.72;36.41
63097;BME280;49185;42.320;23.198;2023-03-23T09:11:03;94895.38;;;17.35;36.98
63097;BME280;49185;42.320;23.198;2023-03-23T09:13:29;94899.66;;;16.87;39.66
63097;BME280;49185;42.320;23.198;2023-03-23T09:15:54;94889.16;;;16.22;38.95
63097;BME280;49185;42.320;23.198;2023-03-23T09:18:20;94889.13;;;17.15;37.67
63097;BME280;49185;42.320;23.198;2023-03-23T09:20:49;94888.69;;;16.79;38.41
63097;BME280;49185;42.320;23.198;2023-03-23T09:23:16;94881.75;;;17.26;36.93
63097;BME280;49185;42.320;23.198;2023-03-23T09:25:41;94885.91;;;17.61;37.82
63097;BME280;49185;42.320;23.198;2023-03-23T09:28:07;94886.00;;;17.32;37.78
63097;BME280;49185;42.320;23.198;2023-03-23T09:30:34;94883.06;;;17.72;37.37
63097;BME280;49185;42.320;23.198;2023-03-23T09:33:00;94879.56;;;17.28;36.69
63097;BME280;49185;42.320;23.198;2023-03-23T09:35:26;94878.25;;;17.01;38.08
63097;BME280;49185;42.320;23.198;2023-03-23T09:37:52;94873.53;;;16.59;38.01
63097;BME280;49185;42.320;23.198;2023-03-23T09:40:23;94881.97;;;17.30;38.04
63097;BME280;49185;42.320;23.198;2023-03-23T09:43:18;94882.41;;;17.18;37.12
63097;BME280;49185;42.320;23.198;2023-03-23T09:46:00;94867.59;;;16.62;37.89
63097;BME280;49185;42.320;23.198;2023-03-23T09:53:48;94867.72;;;17.53;36.37
63097;BME280;49185;42.320;23.198;2023-03-23T09:56:16;94856.25;;;17.48;36.56
63097;BME280;49185;42.320;23.198;2023-03-23T10:01:26;94860.97;;;18.13;36.25
63097;BME280;49185;42.320;23.198;2023-03-23T10:04:01;94854.00;;;17.55;36.51
63097;BME280;49185;42.320;23.198;2023-03-23T10:06:28;94857.34;;;17.65;37.58
63097;BME280;49185;42.320;23.198;2023-03-23T10:08:57;94852.16;;;18.26;35.10
63097;BME280;49185;42.320;23.198;2023-03-23T10:16:58;94850.75;;;18.48;33.71
63097;BME280;49185;42.320;23.198;2023-03-23T10:22:15;94841.28;;;18.50;33.68
63097;BME280;49185;42.320;23.198;2023-03-23T10:25:03;94842.53;;;17.87;35.48
63097;BME280;49185;42.320;23.198;2023-03-23T10:30:02;94839.97;;;18.48;34.22
63097;BME280;49185;42.320;23.198;2023-03-23T10:35:39;94831.66;;;18.91;32.55
63097;BME280;49185;42.320;23.198;2023-03-23T10:38:15;94813.78;;;18.81;33.95
63097;BME280;49185;42.320;23.198;2023-03-23T10:40:54;94828.88;;;18.16;34.24
63097;BME280;49185;42.320;23.198;2023-03-23T10:43:21;94838.28;;;18.85;34.38
63097;BME280;49185;42.320;23.198;2023-03-23T10:45:57;94826.59;;;18.89;33.93
63097;BME280;49185;42.320;23.198;2023-03-23T10:48:30;94826.59;;;19.03;33.00
63097;BME280;49185;42.320;23.198;2023-03-23T10:51:00;94824.59;;;19.09;32.65
63097;BME280;49185;42.320;23.198;2023-03-23T10:53:38;94817.63;;;19.58;31.74
63097;BME280;49185;42.320;23.198;2023-03-23T10:56:05;94822.44;;;19.61;32.35
63097;BME280;49185;42.320;23.198;2023-03-23T10:58:44;94814.91;;;18.94;33.94
63097;BME280;49185;42.320;23.198;2023-03-23T11:01:12;94821.25;;;19.53;32.77
63097;BME280;49185;42.320;23.198;2023-03-23T11:03:45;94814.00;;;20.13;31.52
63097;BME280;49185;42.320;23.198;2023-03-23T11:06:20;94816.31;;;20.06;33.19
63097;BME280;49185;42.320;23.198;2023-03-23T11:08:58;94812.13;;;19.77;31.98
63097;BME280;49185;42.320;23.198;2023-03-23T11:11:28;94806.03;;;19.85;32.40
63097;BME280;49185;42.320;23.198;2023-03-23T11:14:00;94808.94;;;20.43;30.72
63097;BME280;49185;42.320;23.198;2023-03-23T11:16:30;94800.06;;;20.65;31.21
63097;BME280;49185;42.320;23.198;2023-03-23T11:18:58;94804.91;;;20.54;31.17
63097;BME280;49185;42.320;23.198;2023-03-23T11:21:25;94799.44;;;20.77;29.87
63097;BME280;49185;42.320;23.198;2023-03-23T11:23:57;94803.47;;;20.79;30.55
63097;BME280;49185;42.320;23.198;2023-03-23T11:26:37;94794.13;;;20.94;29.83
63097;BME280;49185;42.320;23.198;2023-03-23T11:29:12;94797.16;;;20.39;31.33
63097;BME280;49185;42.320;23.198;2023-03-23T11:31:44;94781.91;;;20.97;28.79
63097;BME280;49185;42.320;23.198;2023-03-23T11:34:20;94789.03;;;20.93;29.10
63097;BME280;49185;42.320;23.198;2023-03-23T11:39:30;94782.53;;;21.95;28.19
63097;BME280;49185;42.320;23.198;2023-03-23T11:41:58;94780.44;;;20.91;29.98
63097;BME280;49185;42.320;23.198;2023-03-23T11:44:32;94783.00;;;20.10;31.15
63097;BME280;49185;42.320;23.198;2023-03-23T11:47:08;94780.69;;;20.49;29.31
63097;BME280;49185;42.320;23.198;2023-03-23T11:52:23;94767.66;;;20.20;30.22
63097;BME280;49185;42.320;23.198;2023-03-23T11:54:56;94765.25;;;18.81;32.19
63097;BME280;49185;42.320;23.198;2023-03-23T11:57:24;94776.25;;;18.85;32.80
63097;BME280;49185;42.320;23.198;2023-03-23T11:59:49;94763.16;;;18.17;35.53
63097;BME280;49185;42.320;23.198;2023-03-23T12:05:27;94754.94;;;18.42;33.64
63097;BME280;49185;42.320;23.198;2023-03-23T12:10:24;94762.19;;;18.13;33.36
63097;BME280;49185;42.320;23.198;2023-03-23T12:12:58;94756.09;;;18.21;33.80
63097;BME280;49185;42.320;23.198;2023-03-23T12:23:18;94756.19;;;17.64;33.73
63097;BME280;49185;42.320;23.198;2023-03-23T12:31:11;94760.75;;;17.64;32.40
63097;BME280;49185;42.320;23.198;2023-03-23T12:34:20;94744.28;;;18.36;30.99
63097;BME280;49185;42.320;23.198;2023-03-23T12:40:19;94745.56;;;17.92;32.53
63097;BME280;49185;42.320;23.198;2023-03-23T12:48:28;94741.59;;;17.84;32.35
63097;BME280;49185;42.320;23.198;2023-03-23T12:53:29;94733.06;;;17.44;33.54
63097;BME280;49185;42.320;23.198;2023-03-23T12:56:07;94733.53;;;17.84;32.55
63097;BME280;49185;42.320;23.198;2023-03-23T12:58:44;94735.41;;;18.03;32.05
63097;BME280;49185;42.320;23.198;2023-03-23T13:01:37;94726.31;;;17.47;33.17
63097;BME280;49185;42.320;23.198;2023-03-23T13:04:10;94733.19;;;16.96;33.35
63097;BME280;49185;42.320;23.198;2023-03-23T13:06:42;94727.00;;;16.96;34.23
63097;BME280;49185;42.320;23.198;2023-03-23T13:09:30;94732.59;;;16.99;33.03
63097;BME280;49185;42.320;23.198;2023-03-23T13:11:59;94716.38;;;17.29;32.20
63097;BME280;49185;42.320;23.198;2023-03-23T13:14:40;94722.34;;;16.58;32.87
63097;BME280;49185;42.320;23.198;2023-03-23T13:26:06;94726.22;;;17.71;34.37
63097;BME280;49185;42.320;23.198;2023-03-23T13:31:23;94717.38;;;17.52;33.54
63097;BME280;49185;42.320;23.198;2023-03-23T13:33:51;94717.16;;;17.48;32.59
63097;BME280;49185;42.320;23.198;2023-03-23T13:36:31;94721.78;;;17.04;34.40
63097;BME280;49185;42.320;23.198;2023-03-23T13:39:01;94716.69;;;17.03;33.53
63097;BME280;49185;42.320;23.198;2023-03-23T13:41:27;94710.16;;;17.47;32.67
63097;BME280;49185;42.320;23.198;2023-03-23T13:43:54;94706.09;;;16.93;33.26
63097;BME280;49185;42.320;23.198;2023-03-23T13:46:30;94706.47;;;16.86;34.45
63097;BME280;49185;42.320;23.198;2023-03-23T13:59:28;94705.81;;;16.46;35.75
63097;BME280;49185;42.320;23.198;2023-03-23T14:01:56;94702.41;;;16.40;33.71
63097;BME280;49185;42.320;23.198;2023-03-23T14:04:23;94698.56;;;16.22;34.32
63097;BME280;49185;42.320;23.198;2023-03-23T14:06:55;94701.59;;;16.40;34.54
63097;BME280;49185;42.320;23.198;2023-03-23T14:09:34;94702.19;;;16.80;35.14
63097;BME280;49185;42.320;23.198;2023-03-23T14:12:04;94698.69;;;17.22;33.65
63097;BME280;49185;42.320;23.198;2023-03-23T14:14:33;94700.00;;;16.39;37.36
63097;BME280;49185;42.320;23.198;2023-03-23T14:17:07;94702.78;;;16.28;38.51
63097;BME280;49185;42.320;23.198;2023-03-23T14:19:33;94698.38;;;16.38;38.34
63097;BME280;49185;42.320;23.198;2023-03-23T14:22:02;94698.22;;;16.53;37.61
63097;BME280;49185;42.320;23.198;2023-03-23T14:24:30;94686.97;;;16.51;37.52
63097;BME280;49185;42.320;23.198;2023-03-23T14:27:16;94693.63;;;16.54;36.47
63097;BME280;49185;42.320;23.198;2023-03-23T14:29:42;94696.06;;;16.31;36.36
63097;BME280;49185;42.320;23.198;2023-03-23T14:32:14;94695.94;;;16.17;35.98
63097;BME280;49185;42.320;23.198;2023-03-23T14:34:40;94690.28;;;16.19;36.90
63097;BME280;49185;42.320;23.198;2023-03-23T14:37:14;94695.13;;;16.17;37.32
63097;BME280;49185;42.320;23.198;2023-03-23T14:39:44;94690.56;;;15.88;37.13
63097;BME280;49185;42.320;23.198;2023-03-23T14:42:13;94699.38;;;15.93;38.39
63097;BME280;49185;42.320;23.198;2023-03-23T14:44:59;94690.16;;;15.70;39.13
63097;BME280;49185;42.320;23.198;2023-03-23T14:47:39;94688.00;;;15.78;39.05